createdAt,value
2019-02-19T00:02:29.037Z,51.10
2019-02-19T00:04:59.046Z,51.73
2019-02-19T00:07:28.881Z,50.00
2019-02-19T00:09:59.013Z,50.40
2019-02-19T00:12:31.137Z,49.33
2019-02-19T00:15:07.892Z,54.10
2019-02-19T00:17:32.737Z,54.93
2019-02-19T00:20:02.726Z,50.87
2019-02-19T00:22:32.782Z,47.63
2019-02-19T00:25:02.893Z,49.87
2019-02-19T00:27:32.894Z,51.60
2019-02-19T00:30:02.926Z,53.13
2019-02-19T00:32:32.797Z,50.20
2019-02-19T00:35:02.834Z,52.87
2019-02-19T00:37:32.721Z,52.53
2019-02-19T00:40:02.781Z,53.57
2019-02-19T00:42:32.768Z,54.53
2019-02-19T00:45:02.743Z,58.27
2019-02-19T00:47:32.789Z,54.93
2019-02-19T00:50:02.709Z,53.03
2019-02-19T00:52:32.561Z,53.53
2019-02-19T00:55:02.648Z,57.83
2019-02-19T00:57:32.763Z,59.73
2019-02-19T01:00:02.778Z,50.00
2019-02-19T01:02:32.813Z,53.13
2019-02-19T01:05:02.692Z,55.67
2019-02-19T01:07:32.754Z,52.20
2019-02-19T01:10:02.629Z,51.03
2019-02-19T01:12:32.808Z,56.07
2019-02-19T01:15:02.675Z,50.43
2019-02-19T01:17:32.584Z,51.30
2019-02-19T01:20:02.401Z,51.90
2019-02-19T01:22:32.426Z,60.47
2019-02-19T01:25:02.493Z,56.67
2019-02-19T01:27:32.333Z,53.17
2019-02-19T01:30:02.282Z,59.60
2019-02-19T01:32:32.368Z,57.07
2019-02-19T01:35:02.317Z,57.30
2019-02-19T01:37:32.313Z,54.10
2019-02-19T01:40:02.216Z,56.67
2019-02-19T01:42:32.262Z,51.93
2019-02-19T01:45:02.044Z,58.03
2019-02-19T01:47:33.698Z,57.60
2019-02-19T01:50:03.406Z,53.17
2019-02-19T01:52:33.441Z,51.97
2019-02-19T01:55:03.385Z,54.73
2019-02-19T01:57:33.257Z,55.43
2019-02-19T02:00:03.065Z,52.87
2019-02-19T02:02:33.068Z,57.50
2019-02-19T02:05:02.921Z,56.70
2019-02-19T02:07:32.781Z,55.47
2019-02-19T02:10:02.739Z,54.53
2019-02-19T02:12:32.653Z,56.63
2019-02-19T02:15:02.465Z,59.63
2019-02-19T02:17:32.461Z,61.03
2019-02-19T02:20:02.393Z,56.63
2019-02-19T02:22:32.273Z,53.20
2019-02-19T02:25:02.325Z,57.83
2019-02-19T02:27:32.435Z,60.57
2019-02-19T02:30:02.658Z,64.40
2019-02-19T02:32:32.462Z,60.33
2019-02-19T02:35:02.576Z,60.53
2019-02-19T02:37:32.711Z,56.57
2019-02-19T02:40:02.623Z,59.47
2019-02-19T02:42:32.555Z,60.67
2019-02-19T02:45:02.522Z,62.13
2019-02-19T02:47:32.361Z,61.23
2019-02-19T02:50:02.367Z,68.77
2019-02-19T02:52:32.294Z,62.17
2019-02-19T02:55:02.350Z,59.20
2019-02-19T02:57:32.427Z,60.50
2019-02-19T03:00:02.395Z,62.87
2019-02-19T03:02:32.245Z,63.73
2019-02-19T03:05:02.096Z,66.30
2019-02-19T03:07:36.353Z,67.93
2019-02-19T03:10:05.814Z,66.77
2019-02-19T03:12:35.677Z,64.40
2019-02-19T03:15:06.249Z,71.77
2019-02-19T03:17:36.354Z,69.33
2019-02-19T03:20:06.536Z,70.07
2019-02-19T03:22:36.693Z,74.43
2019-02-19T03:25:06.670Z,71.20
2019-02-19T03:27:36.566Z,74.90
2019-02-19T03:30:07.928Z,70.33
2019-02-19T03:32:37.981Z,72.53
2019-02-19T03:35:07.966Z,71.50
2019-02-19T03:37:38.118Z,70.83
2019-02-19T03:40:08.405Z,72.53
2019-02-19T03:42:38.466Z,69.73
2019-02-19T03:45:09.963Z,75.80
2019-02-19T03:47:39.927Z,71.63
2019-02-19T03:50:09.904Z,72.07
2019-02-19T03:52:39.814Z,73.70
2019-02-19T03:55:09.854Z,63.47
2019-02-19T03:57:39.873Z,75.17
2019-02-19T04:00:10.197Z,72.13
2019-02-19T04:02:40.078Z,69.70
2019-02-19T04:05:10.134Z,80.37
2019-02-19T04:07:40.015Z,77.53
2019-02-19T04:10:10.261Z,75.20
2019-02-19T04:12:40.178Z,74.83
2019-02-19T04:15:10.157Z,84.57
2019-02-19T04:17:40.113Z,71.40
2019-02-19T04:20:10.202Z,68.30
2019-02-19T04:22:40.033Z,76.70
2019-02-19T04:25:10.238Z,69.83
2019-02-19T04:27:40.310Z,70.87
2019-02-19T04:30:10.253Z,76.37
2019-02-19T04:32:40.114Z,71.23
2019-02-19T04:35:10.322Z,78.73
2019-02-19T04:37:41.917Z,77.93
2019-02-19T04:40:11.874Z,79.30
2019-02-19T04:42:41.894Z,85.43
2019-02-19T04:45:11.812Z,82.63
2019-02-19T04:47:41.715Z,83.37
2019-02-19T04:50:11.640Z,88.33
2019-02-19T04:52:41.646Z,86.10
2019-02-19T04:55:11.822Z,85.03
2019-02-19T04:57:41.882Z,87.57
2019-02-19T05:00:13.101Z,92.60
2019-02-19T05:02:43.169Z,90.40
2019-02-19T05:05:13.057Z,89.43
2019-02-19T05:07:42.981Z,97.70
2019-02-19T05:10:12.533Z,85.57
2019-02-19T05:12:42.629Z,93.40
2019-02-19T05:15:12.798Z,94.20
2019-02-19T05:17:42.752Z,95.63
2019-02-19T05:20:12.844Z,99.87
2019-02-19T05:22:42.825Z,98.20
2019-02-19T05:25:12.986Z,113.90
2019-02-19T05:27:42.957Z,115.70
2019-02-19T05:30:13.728Z,112.57
2019-02-19T05:32:43.654Z,107.57
2019-02-19T05:35:13.589Z,117.87
2019-02-19T05:37:43.469Z,115.60
2019-02-19T05:40:13.398Z,109.13
2019-02-19T05:42:43.296Z,119.83
2019-02-19T05:45:13.222Z,105.23
2019-02-19T05:47:43.129Z,112.13
2019-02-19T05:50:13.068Z,109.30
2019-02-19T05:52:43.089Z,110.07
2019-02-19T05:55:13.153Z,115.63
2019-02-19T05:57:43.223Z,105.17
2019-02-19T06:00:14.573Z,118.63
2019-02-19T06:02:44.582Z,110.77
2019-02-19T06:05:14.670Z,105.20
2019-02-19T06:07:44.614Z,107.97
2019-02-19T06:10:14.614Z,103.60
2019-02-19T06:12:44.550Z,94.13
2019-02-19T06:15:14.840Z,108.70
2019-02-19T06:17:44.742Z,102.37
2019-02-19T06:20:16.938Z,104.97
2019-02-19T06:22:47.029Z,96.57
2019-02-19T06:25:17.096Z,100.83
2019-02-19T06:27:47.101Z,93.17
2019-02-19T06:30:16.993Z,99.80
2019-02-19T06:32:46.925Z,99.77
2019-02-19T06:35:16.925Z,103.23
2019-02-19T06:37:47.038Z,97.93
2019-02-19T06:40:28.519Z,106.33
2019-02-19T06:42:58.437Z,100.13
2019-02-19T06:45:28.457Z,91.43
2019-02-19T06:47:58.395Z,99.73
2019-02-19T06:50:28.481Z,102.07
2019-02-19T06:52:58.392Z,101.87
2019-02-19T06:55:28.509Z,105.53
2019-02-19T06:57:58.496Z,92.97
2019-02-19T07:00:28.437Z,100.43
2019-02-19T07:03:16.697Z,98.53
2019-02-19T07:05:46.697Z,92.33
2019-02-19T07:08:17.620Z,92.47
2019-02-19T07:10:47.669Z,92.57
2019-02-19T07:13:19.630Z,88.57
2019-02-19T07:15:49.650Z,91.27
2019-02-19T07:18:21.161Z,89.83
2019-02-19T07:20:51.217Z,83.20
2019-02-19T07:23:21.289Z,87.40
2019-02-19T07:25:51.245Z,83.53
2019-02-19T07:28:21.385Z,83.53
2019-02-19T07:30:51.377Z,76.87
2019-02-19T07:33:21.285Z,74.73
2019-02-19T07:35:51.097Z,73.77
2019-02-19T07:38:22.360Z,71.63
2019-02-19T07:40:52.473Z,70.10
2019-02-19T07:43:22.470Z,71.87
2019-02-19T07:45:52.493Z,72.17
2019-02-19T07:48:22.426Z,67.40
2019-02-19T07:50:52.324Z,70.97
2019-02-19T07:53:22.245Z,73.57
2019-02-19T07:55:52.251Z,80.10
2019-02-19T07:58:22.277Z,70.50
2019-02-19T08:00:52.261Z,67.70
2019-02-19T08:03:22.173Z,70.40
2019-02-19T08:05:54.296Z,69.53
2019-02-19T08:08:24.379Z,78.10
2019-02-19T08:10:54.464Z,69.83
2019-02-19T08:13:24.405Z,70.13
2019-02-19T08:15:54.519Z,71.37
2019-02-19T08:18:25.180Z,65.40
2019-02-19T08:20:55.478Z,65.53
2019-02-19T08:23:25.390Z,66.27
2019-02-19T08:25:55.329Z,65.10
2019-02-19T08:28:25.545Z,68.43
2019-02-19T08:30:55.514Z,65.53
2019-02-19T08:33:25.476Z,65.13
2019-02-19T08:35:55.474Z,66.57
2019-02-19T08:38:25.509Z,64.53
2019-02-19T08:40:55.499Z,61.03
2019-02-19T08:43:25.641Z,70.60
2019-02-19T08:45:55.513Z,65.73
2019-02-19T08:48:25.581Z,61.03
2019-02-19T08:50:55.561Z,61.57
2019-02-19T08:53:25.397Z,66.57
2019-02-19T08:55:55.497Z,60.30
2019-02-19T08:58:25.412Z,63.20
2019-02-19T09:00:55.345Z,58.20
2019-02-19T09:03:25.226Z,57.43
2019-02-19T09:05:55.373Z,63.33
2019-02-19T09:08:25.361Z,60.13
2019-02-19T09:10:55.753Z,61.37
2019-02-19T09:13:25.911Z,57.23
2019-02-19T09:15:55.852Z,59.37
2019-02-19T09:18:27.262Z,56.40
2019-02-19T09:20:57.183Z,58.17
2019-02-19T09:23:27.360Z,57.60
2019-02-19T09:25:57.441Z,51.77
2019-02-19T09:28:27.573Z,56.33
2019-02-19T09:30:57.551Z,57.63
2019-02-19T09:33:27.594Z,60.37
2019-02-19T09:35:57.708Z,60.90
2019-02-19T09:38:27.725Z,54.47
2019-02-19T09:40:57.828Z,56.80
2019-02-19T09:43:35.357Z,51.93
2019-02-19T09:45:59.425Z,58.40
2019-02-19T09:48:29.294Z,60.37
2019-02-19T09:50:59.273Z,54.57
2019-02-19T09:53:29.321Z,58.07
2019-02-19T09:55:59.290Z,55.73
2019-02-19T09:58:29.375Z,60.00
2019-02-19T10:00:59.401Z,55.53
2019-02-19T10:03:29.315Z,52.63
2019-02-19T10:06:01.210Z,53.70
2019-02-19T10:08:32.725Z,55.50
2019-02-19T10:11:02.665Z,50.23
2019-02-19T10:13:32.666Z,50.47
2019-02-19T10:16:02.547Z,52.13
2019-02-19T10:18:32.577Z,52.10
2019-02-19T10:21:02.591Z,44.07
2019-02-19T10:23:32.608Z,49.03
2019-02-19T10:26:02.625Z,51.30
2019-02-19T10:28:32.687Z,52.37
2019-02-19T10:31:02.650Z,50.33
2019-02-19T10:33:32.722Z,48.10
2019-02-19T10:36:02.765Z,63.00
2019-02-19T10:38:32.689Z,53.43
2019-02-19T10:41:04.345Z,57.73
2019-02-19T10:43:34.276Z,56.97
2019-02-19T10:46:04.329Z,69.40
2019-02-19T10:48:34.305Z,59.77
2019-02-19T10:51:23.162Z,62.23
2019-02-19T10:53:53.014Z,58.00
2019-02-19T10:56:23.114Z,59.00
2019-02-19T10:58:53.107Z,56.93
2019-02-19T11:01:23.176Z,56.93
2019-02-19T11:03:53.247Z,53.33
2019-02-19T11:06:23.142Z,57.47
2019-02-19T11:08:53.093Z,52.20
2019-02-19T11:11:23.092Z,57.47
2019-02-19T11:13:53.010Z,57.50
2019-02-19T11:16:22.913Z,53.70
2019-02-19T11:18:52.742Z,54.77
2019-02-19T11:21:22.636Z,55.50
2019-02-19T11:23:52.459Z,49.70
2019-02-19T11:26:22.577Z,51.70
2019-02-19T11:28:52.509Z,52.27
2019-02-19T11:31:22.500Z,45.07
2019-02-19T11:33:52.421Z,50.23
2019-02-19T11:36:22.275Z,48.10
2019-02-19T11:38:52.248Z,47.30
2019-02-19T11:41:22.265Z,47.37
2019-02-19T11:43:52.172Z,45.73
2019-02-19T11:46:22.093Z,45.33
2019-02-19T11:48:51.995Z,39.97
2019-02-19T11:51:21.921Z,33.60
2019-02-19T11:53:51.841Z,39.03
2019-02-19T11:56:21.824Z,34.03
2019-02-19T11:58:51.773Z,33.67
2019-02-19T12:01:21.753Z,32.43
2019-02-19T12:03:51.597Z,29.57
2019-02-19T12:06:21.475Z,25.53
2019-02-19T12:08:51.533Z,28.80
2019-02-19T12:11:21.405Z,24.03
2019-02-19T12:13:51.461Z,31.77
2019-02-19T12:16:21.346Z,26.90
2019-02-19T12:18:51.493Z,28.63
2019-02-19T12:21:21.369Z,25.97
2019-02-19T12:23:51.561Z,23.20
2019-02-19T12:26:21.620Z,32.87
2019-02-19T12:28:51.534Z,26.93
2019-02-19T12:31:21.569Z,20.33
2019-02-19T12:33:51.464Z,24.67
2019-02-19T12:36:21.505Z,17.53
2019-02-19T12:38:51.413Z,15.93
2019-02-19T12:41:21.446Z,14.43
2019-02-19T12:43:51.434Z,13.47
2019-02-19T12:46:21.449Z,15.00
2019-02-19T12:48:54.613Z,13.40
2019-02-19T12:51:26.496Z,10.37
2019-02-19T12:53:54.774Z,13.90
2019-02-19T12:56:24.682Z,10.10
2019-02-19T12:58:54.606Z,10.63
2019-02-19T13:01:24.507Z,10.27
2019-02-19T13:03:54.537Z,17.43
2019-02-19T13:06:24.437Z,13.27
2019-02-19T13:08:54.425Z,13.23
2019-02-19T13:11:24.369Z,15.17
2019-02-19T13:13:54.320Z,15.67
2019-02-19T13:16:24.220Z,39.37
2019-02-19T13:18:54.089Z,26.87
2019-02-19T13:21:24.077Z,21.53
2019-02-19T13:23:53.825Z,11.90
2019-02-19T13:26:25.424Z,19.07
2019-02-19T13:28:55.300Z,15.43
2019-02-19T13:31:25.127Z,14.97
2019-02-19T13:33:55.025Z,15.07
2019-02-19T13:36:24.960Z,14.33
2019-02-19T13:38:54.870Z,12.87
2019-02-19T13:41:24.861Z,13.07
2019-02-19T13:43:55.009Z,15.63
2019-02-19T13:46:24.999Z,13.40
2019-02-19T13:48:54.937Z,17.27
2019-02-19T13:51:25.153Z,16.57
2019-02-19T13:54:02.545Z,18.13
2019-02-19T13:56:32.542Z,13.87
2019-02-19T13:59:02.477Z,15.70
2019-02-19T14:01:32.489Z,15.73
2019-02-19T14:04:02.377Z,14.70
2019-02-19T14:06:32.429Z,14.57
2019-02-19T14:09:02.350Z,14.20
2019-02-19T14:11:32.353Z,11.20
2019-02-19T14:14:14.001Z,13.63
2019-02-19T14:16:48.765Z,13.00
2019-02-19T14:19:28.389Z,12.93
2019-02-19T14:22:07.389Z,11.80
2019-02-19T14:24:44.317Z,13.40
2019-02-19T14:27:42.059Z,11.37
2019-02-19T14:30:37.854Z,10.50
2019-02-19T14:33:26.713Z,12.77
2019-02-19T14:36:15.340Z,13.03
2019-02-19T14:39:13.137Z,12.57
2019-02-19T14:42:00.685Z,12.10
2019-02-19T14:44:52.411Z,13.43
2019-02-19T14:47:41.001Z,12.27
2019-02-19T14:50:28.358Z,11.00
2019-02-19T14:53:12.202Z,15.57
2019-02-19T14:56:10.196Z,12.30
2019-02-19T14:59:03.870Z,13.70
2019-02-19T15:01:44.009Z,11.73
2019-02-19T15:04:29.377Z,11.03
2019-02-19T15:07:27.096Z,10.03
2019-02-19T15:10:31.467Z,11.00
2019-02-19T15:13:19.185Z,10.30
2019-02-19T15:16:17.286Z,13.47
2019-02-19T15:19:05.018Z,12.43
2019-02-19T15:21:52.722Z,13.53
2019-02-19T15:24:53.561Z,12.13
2019-02-19T15:27:54.501Z,11.13
2019-02-19T15:30:42.362Z,11.43
2019-02-19T15:33:49.113Z,9.50
2019-02-19T15:36:43.704Z,12.30
2019-02-19T15:39:30.929Z,11.60
2019-02-19T15:42:18.660Z,11.10
2019-02-19T15:45:07.440Z,11.90
2019-02-19T15:47:55.272Z,12.73
2019-02-19T15:50:42.595Z,11.43
2019-02-19T15:53:38.493Z,11.30
2019-02-19T15:56:26.351Z,13.07
2019-02-19T15:59:14.053Z,10.27
2019-02-19T16:01:51.257Z,12.50
2019-02-19T16:04:39.961Z,10.37
2019-02-19T16:07:31.725Z,8.90
2019-02-19T16:10:29.920Z,8.53
2019-02-19T16:13:07.204Z,8.93
2019-02-19T16:15:54.916Z,8.67
2019-02-19T16:18:51.448Z,12.03
2019-02-19T16:21:28.333Z,10.60
2019-02-19T16:24:07.785Z,11.03
2019-02-19T16:26:59.618Z,10.23
2019-02-19T16:29:51.622Z,11.23
2019-02-19T16:32:40.581Z,8.10
2019-02-19T16:35:22.177Z,10.77
2019-02-19T16:38:17.611Z,5.47
2019-02-19T16:41:12.301Z,4.30
2019-02-19T16:44:10.349Z,4.13
2019-02-19T16:46:59.207Z,3.80
2019-02-19T16:49:46.424Z,3.60
2019-02-19T16:52:26.476Z,4.17
2019-02-19T16:55:18.101Z,2.60
2019-02-19T16:58:03.886Z,3.20
2019-02-19T17:01:10.871Z,5.17
2019-02-19T17:04:03.441Z,4.57
2019-02-19T17:06:46.741Z,2.27
2019-02-19T17:09:38.468Z,3.03
2019-02-19T17:12:30.088Z,3.00
2019-02-19T17:15:23.142Z,2.47
2019-02-19T17:18:18.453Z,2.23
2019-02-19T17:21:02.202Z,3.23
2019-02-19T17:23:43.806Z,3.40
2019-02-19T17:26:21.521Z,1.27
2019-02-19T17:29:00.910Z,3.20
2019-02-19T17:31:51.713Z,2.80
2019-02-19T17:34:46.544Z,2.63
2019-02-19T17:37:38.363Z,3.83
2019-02-19T17:40:26.477Z,2.10
2019-02-19T17:43:06.633Z,2.87
2019-02-19T17:45:51.626Z,4.53
2019-02-19T17:48:29.409Z,2.53
2019-02-19T17:51:21.338Z,1.87
2019-02-19T17:54:13.055Z,2.63
2019-02-19T17:57:00.579Z,2.83
2019-02-19T17:59:51.615Z,1.57
2019-02-19T18:02:28.462Z,0.83
2019-02-19T18:05:23.977Z,0.77
2019-02-19T18:08:11.502Z,2.47
2019-02-19T18:10:51.172Z,2.60
2019-02-19T18:13:38.802Z,3.40
2019-02-19T18:16:26.343Z,2.17
2019-02-19T18:18:56.521Z,3.20
2019-02-19T18:21:26.377Z,3.13
2019-02-19T18:23:56.185Z,4.30
2019-02-19T18:26:26.081Z,1.43
2019-02-19T18:28:55.905Z,3.83
2019-02-19T18:31:26.023Z,3.67
2019-02-19T18:33:55.835Z,2.80
2019-02-19T18:36:25.740Z,3.37
2019-02-19T18:38:55.557Z,2.23
2019-02-19T18:41:25.341Z,2.87
2019-02-19T18:43:55.304Z,1.57
2019-02-19T18:46:25.077Z,1.20
2019-02-19T18:48:54.923Z,3.90
2019-02-19T18:51:24.744Z,6.17
2019-02-19T18:53:54.517Z,2.97
2019-02-19T18:56:24.545Z,1.93
2019-02-19T18:58:54.548Z,2.80
2019-02-19T19:01:24.589Z,2.20
2019-02-19T19:03:54.481Z,1.30
2019-02-19T19:06:24.403Z,2.17
2019-02-19T19:08:54.385Z,1.80
2019-02-19T19:11:24.402Z,5.57
2019-02-19T19:13:54.341Z,3.10
2019-02-19T19:16:24.101Z,1.93
2019-02-19T19:18:54.186Z,6.30
2019-02-19T19:21:24.186Z,1.57
2019-02-19T19:23:54.918Z,5.13
2019-02-19T19:26:26.450Z,2.80
2019-02-19T19:28:56.518Z,1.80
2019-02-19T19:31:33.193Z,4.60
2019-02-19T19:33:58.077Z,4.20
2019-02-19T19:36:27.984Z,5.53
2019-02-19T19:38:58.003Z,1.57
2019-02-19T19:41:27.917Z,3.63
2019-02-19T19:43:57.803Z,2.87
2019-02-19T19:46:27.750Z,2.07
2019-02-19T19:48:57.647Z,1.63
2019-02-19T19:51:29.632Z,5.20
2019-02-19T19:53:59.723Z,3.33
2019-02-19T19:56:29.774Z,3.90
2019-02-19T19:58:59.890Z,2.60
2019-02-19T20:01:30.038Z,4.33
2019-02-19T20:03:59.987Z,4.03
2019-02-19T20:06:29.941Z,2.33
2019-02-19T20:08:59.964Z,4.40
2019-02-19T20:11:29.946Z,2.40
2019-02-19T20:14:00.228Z,4.03
2019-02-19T20:16:30.383Z,5.70
2019-02-19T20:19:00.330Z,3.07
2019-02-19T20:21:30.516Z,4.57
2019-02-19T20:24:00.428Z,4.80
2019-02-19T20:26:30.438Z,3.70
2019-02-19T20:29:00.309Z,5.10
2019-02-19T20:31:30.264Z,3.67
2019-02-19T20:34:00.177Z,3.80
2019-02-19T20:36:30.110Z,3.70
2019-02-19T20:38:59.995Z,1.43
2019-02-19T20:41:29.825Z,4.47
2019-02-19T20:43:59.942Z,3.80
2019-02-19T20:46:29.970Z,2.17
2019-02-19T20:48:59.990Z,1.90
2019-02-19T20:51:36.217Z,3.27
2019-02-19T20:54:01.542Z,5.33
2019-02-19T20:56:31.652Z,5.47
2019-02-19T20:59:01.485Z,3.63
2019-02-19T21:01:32.389Z,5.20
2019-02-19T21:04:02.229Z,1.97
2019-02-19T21:06:32.223Z,5.53
2019-02-19T21:09:02.046Z,4.97
2019-02-19T21:11:31.845Z,4.17
2019-02-19T21:14:01.701Z,6.37
2019-02-19T21:16:31.562Z,2.63
2019-02-19T21:19:01.528Z,2.37
2019-02-19T21:21:31.419Z,5.87
2019-02-19T21:24:01.215Z,3.93
2019-02-19T21:26:32.109Z,5.97
2019-02-19T21:29:01.974Z,6.57
2019-02-19T21:31:31.893Z,2.43
2019-02-19T21:34:01.689Z,3.23
2019-02-19T21:36:31.629Z,3.10
2019-02-19T21:39:01.406Z,2.87
2019-02-19T21:41:31.345Z,5.77
2019-02-19T21:44:01.155Z,5.37
2019-02-19T21:46:31.057Z,4.43
2019-02-19T21:49:00.989Z,3.83
2019-02-19T21:51:30.879Z,3.40
2019-02-19T21:54:00.697Z,3.33
2019-02-19T21:56:30.713Z,2.63
2019-02-19T21:59:00.537Z,4.53
2019-02-19T22:01:30.314Z,3.03
2019-02-19T22:04:00.277Z,2.17
2019-02-19T22:06:30.262Z,3.10
2019-02-19T22:09:00.469Z,5.37
2019-02-19T22:11:30.409Z,4.13
2019-02-19T22:14:00.411Z,7.13
2019-02-19T22:16:30.549Z,4.43
2019-02-19T22:19:00.650Z,7.80
2019-02-19T22:21:44.605Z,3.67
2019-02-19T22:24:16.143Z,2.50
2019-02-19T22:26:46.080Z,1.13
2019-02-19T22:29:16.075Z,2.67
2019-02-19T22:31:45.905Z,4.20
2019-02-19T22:34:15.707Z,4.17
2019-02-19T22:36:45.485Z,5.83
2019-02-19T22:39:15.433Z,3.17
2019-02-19T22:41:45.321Z,3.37
2019-02-19T22:44:15.265Z,3.03
2019-02-19T22:46:45.081Z,1.20
2019-02-19T22:49:14.982Z,4.57
2019-02-19T22:51:44.889Z,4.13
2019-02-19T22:54:25.013Z,3.77
2019-02-19T22:56:54.829Z,2.93
2019-02-19T22:59:24.725Z,0.83
2019-02-19T23:02:00.217Z,3.27
2019-02-19T23:04:31.054Z,1.60
2019-02-19T23:07:00.837Z,4.30
2019-02-19T23:09:30.788Z,2.17
2019-02-19T23:12:00.701Z,4.37
2019-02-19T23:14:30.593Z,1.87
2019-02-19T23:17:00.483Z,2.67
2019-02-19T23:19:30.419Z,1.17
2019-02-19T23:22:00.254Z,4.20
2019-02-19T23:24:30.037Z,4.37
2019-02-19T23:26:59.882Z,3.03
2019-02-19T23:29:29.797Z,1.77
2019-02-19T23:31:59.669Z,1.93
2019-02-19T23:34:29.758Z,2.27
2019-02-19T23:37:27.641Z,2.37
2019-02-19T23:39:57.601Z,1.67
2019-02-19T23:42:27.393Z,3.53
2019-02-19T23:44:57.321Z,3.30
2019-02-19T23:47:27.220Z,3.80
2019-02-19T23:49:57.051Z,1.70
2019-02-19T23:52:30.474Z,7.23
2019-02-19T23:54:58.321Z,4.17
2019-02-19T23:57:28.329Z,3.13
2019-02-19T23:59:58.424Z,2.93
